sensor_id;sensor_type;location;lat;lon;timestamp;temperature;humidity
50738;DHT22;36703;48.154;17.126;2023-12-20T00:01:48;4.60;59.20
50738;DHT22;36703;48.154;17.126;2023-12-20T00:05:50;4.60;59.30
50738;DHT22;36703;48.154;17.126;2023-12-20T00:09:52;4.70;59.40
50738;DHT22;36703;48.154;17.126;2023-12-20T00:13:53;4.70;59.40
50738;DHT22;36703;48.154;17.126;2023-12-20T00:17:55;4.70;59.30
50738;DHT22;36703;48.154;17.126;2023-12-20T00:21:56;4.70;59.10
50738;DHT22;36703;48.154;17.126;2023-12-20T00:25:58;4.70;59.40
50738;DHT22;36703;48.154;17.126;2023-12-20T00:29:59;4.60;59.30
50738;DHT22;36703;48.154;17.126;2023-12-20T00:34:01;4.70;59.60
50738;DHT22;36703;48.154;17.126;2023-12-20T00:38:02;4.60;59.50
50738;DHT22;36703;48.154;17.126;2023-12-20T00:42:06;4.70;59.70
50738;DHT22;36703;48.154;17.126;2023-12-20T00:46:07;4.70;59.60
50738;DHT22;36703;48.154;17.126;2023-12-20T00:50:09;4.70;59.60
50738;DHT22;36703;48.154;17.126;2023-12-20T00:54:10;4.70;59.50
50738;DHT22;36703;48.154;17.126;2023-12-20T00:58:12;4.70;59.50
50738;DHT22;36703;48.154;17.126;2023-12-20T01:02:16;4.70;59.50
50738;DHT22;36703;48.154;17.126;2023-12-20T01:06:17;4.70;59.60
50738;DHT22;36703;48.154;17.126;2023-12-20T01:10:19;4.70;59.70
50738;DHT22;36703;48.154;17.126;2023-12-20T01:14:20;4.60;59.50
50738;DHT22;36703;48.154;17.126;2023-12-20T01:18:22;4.60;59.60
50738;DHT22;36703;48.154;17.126;2023-12-20T01:22:23;4.60;59.70
50738;DHT22;36703;48.154;17.126;2023-12-20T01:26:24;4.50;59.80
50738;DHT22;36703;48.154;17.126;2023-12-20T01:30:26;4.60;60.00
50738;DHT22;36703;48.154;17.126;2023-12-20T01:34:27;4.60;60.20
50738;DHT22;36703;48.154;17.126;2023-12-20T01:38:29;4.50;60.10
50738;DHT22;36703;48.154;17.126;2023-12-20T01:42:31;4.50;59.60
50738;DHT22;36703;48.154;17.126;2023-12-20T01:46:33;4.50;60.00
50738;DHT22;36703;48.154;17.126;2023-12-20T01:50:36;4.80;60.30
50738;DHT22;36703;48.154;17.126;2023-12-20T01:54:38;4.60;60.00
50738;DHT22;36703;48.154;17.126;2023-12-20T01:58:44;4.60;60.10
50738;DHT22;36703;48.154;17.126;2023-12-20T02:02:47;4.60;60.10
50738;DHT22;36703;48.154;17.126;2023-12-20T02:06:52;4.70;60.10
50738;DHT22;36703;48.154;17.126;2023-12-20T02:10:55;4.70;60.10
50738;DHT22;36703;48.154;17.126;2023-12-20T02:14:57;4.70;60.20
50738;DHT22;36703;48.154;17.126;2023-12-20T02:18:58;4.70;60.10
50738;DHT22;36703;48.154;17.126;2023-12-20T02:23:03;4.70;60.40
50738;DHT22;36703;48.154;17.126;2023-12-20T02:27:08;4.60;60.20
50738;DHT22;36703;48.154;17.126;2023-12-20T02:31:09;4.70;60.30
50738;DHT22;36703;48.154;17.126;2023-12-20T02:35:11;4.70;60.30
50738;DHT22;36703;48.154;17.126;2023-12-20T02:39:12;4.70;60.30
50738;DHT22;36703;48.154;17.126;2023-12-20T02:43:14;4.70;60.20
50738;DHT22;36703;48.154;17.126;2023-12-20T02:47:15;4.70;60.30
50738;DHT22;36703;48.154;17.126;2023-12-20T02:51:17;4.70;60.40
50738;DHT22;36703;48.154;17.126;2023-12-20T02:55:18;4.70;60.30
50738;DHT22;36703;48.154;17.126;2023-12-20T02:59:20;4.80;60.20
50738;DHT22;36703;48.154;17.126;2023-12-20T03:03:21;4.80;60.20
50738;DHT22;36703;48.154;17.126;2023-12-20T03:07:22;4.80;60.20
50738;DHT22;36703;48.154;17.126;2023-12-20T03:11:26;4.80;60.10
50738;DHT22;36703;48.154;17.126;2023-12-20T03:15:28;4.80;60.10
50738;DHT22;36703;48.154;17.126;2023-12-20T03:19:30;4.80;60.10
50738;DHT22;36703;48.154;17.126;2023-12-20T03:23:31;4.80;60.00
50738;DHT22;36703;48.154;17.126;2023-12-20T03:27:39;4.80;60.10
50738;DHT22;36703;48.154;17.126;2023-12-20T03:31:40;4.80;60.20
50738;DHT22;36703;48.154;17.126;2023-12-20T03:35:42;4.80;60.00
50738;DHT22;36703;48.154;17.126;2023-12-20T03:39:43;4.80;60.20
50738;DHT22;36703;48.154;17.126;2023-12-20T03:43:45;4.80;60.00
50738;DHT22;36703;48.154;17.126;2023-12-20T03:47:46;4.80;60.10
50738;DHT22;36703;48.154;17.126;2023-12-20T03:51:48;4.80;59.90
50738;DHT22;36703;48.154;17.126;2023-12-20T03:55:50;4.70;60.10
50738;DHT22;36703;48.154;17.126;2023-12-20T03:59:51;5.40;60.40
50738;DHT22;36703;48.154;17.126;2023-12-20T04:03:53;4.70;60.00
50738;DHT22;36703;48.154;17.126;2023-12-20T04:07:54;4.70;60.00
50738;DHT22;36703;48.154;17.126;2023-12-20T04:11:56;4.70;59.90
50738;DHT22;36703;48.154;17.126;2023-12-20T04:15:57;4.70;60.00
50738;DHT22;36703;48.154;17.126;2023-12-20T04:19:59;6.00;60.80
50738;DHT22;36703;48.154;17.126;2023-12-20T04:24:00;4.70;59.90
50738;DHT22;36703;48.154;17.126;2023-12-20T04:28:01;4.60;59.90
50738;DHT22;36703;48.154;17.126;2023-12-20T04:32:04;4.60;60.00
50738;DHT22;36703;48.154;17.126;2023-12-20T04:36:06;4.60;59.80
50738;DHT22;36703;48.154;17.126;2023-12-20T04:40:10;4.60;59.80
50738;DHT22;36703;48.154;17.126;2023-12-20T04:44:11;4.60;59.90
50738;DHT22;36703;48.154;17.126;2023-12-20T04:48:13;4.70;59.90
50738;DHT22;36703;48.154;17.126;2023-12-20T04:52:14;4.60;59.80
50738;DHT22;36703;48.154;17.126;2023-12-20T04:56:16;4.60;59.70
50738;DHT22;36703;48.154;17.126;2023-12-20T05:00:17;4.50;59.90
50738;DHT22;36703;48.154;17.126;2023-12-20T05:04:19;4.50;60.00
50738;DHT22;36703;48.154;17.126;2023-12-20T05:08:21;4.50;59.90
50738;DHT22;36703;48.154;17.126;2023-12-20T05:12:22;4.50;60.00
50738;DHT22;36703;48.154;17.126;2023-12-20T05:16:24;4.70;60.00
50738;DHT22;36703;48.154;17.126;2023-12-20T05:20:25;4.50;59.80
50738;DHT22;36703;48.154;17.126;2023-12-20T05:24:26;4.60;60.00
50738;DHT22;36703;48.154;17.126;2023-12-20T05:28:28;4.50;59.90
50738;DHT22;36703;48.154;17.126;2023-12-20T05:32:29;4.50;59.80
50738;DHT22;36703;48.154;17.126;2023-12-20T05:36:31;4.50;60.00
50738;DHT22;36703;48.154;17.126;2023-12-20T05:40:32;4.60;59.90
50738;DHT22;36703;48.154;17.126;2023-12-20T05:44:34;4.60;59.90
50738;DHT22;36703;48.154;17.126;2023-12-20T05:48:35;4.60;59.80
50738;DHT22;36703;48.154;17.126;2023-12-20T05:52:37;4.70;59.80
50738;DHT22;36703;48.154;17.126;2023-12-20T05:56:38;4.70;59.70
50738;DHT22;36703;48.154;17.126;2023-12-20T06:00:39;4.70;59.60
50738;DHT22;36703;48.154;17.126;2023-12-20T06:04:44;4.80;59.60
50738;DHT22;36703;48.154;17.126;2023-12-20T06:08:45;4.80;59.50
50738;DHT22;36703;48.154;17.126;2023-12-20T06:12:47;4.80;59.60
50738;DHT22;36703;48.154;17.126;2023-12-20T06:16:51;5.10;59.80
50738;DHT22;36703;48.154;17.126;2023-12-20T06:20:52;4.70;59.70
50738;DHT22;36703;48.154;17.126;2023-12-20T06:24:54;4.80;59.70
50738;DHT22;36703;48.154;17.126;2023-12-20T06:28:55;4.80;59.60
50738;DHT22;36703;48.154;17.126;2023-12-20T06:32:57;4.70;59.50
50738;DHT22;36703;48.154;17.126;2023-12-20T06:36:58;4.80;59.80
50738;DHT22;36703;48.154;17.126;2023-12-20T06:41:00;4.70;59.60
50738;DHT22;36703;48.154;17.126;2023-12-20T06:45:01;4.80;60.20
50738;DHT22;36703;48.154;17.126;2023-12-20T06:49:03;4.70;59.40
50738;DHT22;36703;48.154;17.126;2023-12-20T06:53:04;4.70;59.60
50738;DHT22;36703;48.154;17.126;2023-12-20T06:57:08;4.70;59.70
50738;DHT22;36703;48.154;17.126;2023-12-20T07:01:13;4.70;59.60
50738;DHT22;36703;48.154;17.126;2023-12-20T07:05:18;4.70;60.10
50738;DHT22;36703;48.154;17.126;2023-12-20T07:09:21;4.70;59.70
50738;DHT22;36703;48.154;17.126;2023-12-20T07:13:22;4.80;59.70
50738;DHT22;36703;48.154;17.126;2023-12-20T07:17:23;4.80;59.50
50738;DHT22;36703;48.154;17.126;2023-12-20T07:21:28;4.90;59.50
50738;DHT22;36703;48.154;17.126;2023-12-20T07:25:30;4.90;59.40
50738;DHT22;36703;48.154;17.126;2023-12-20T07:29:33;5.40;59.70
50738;DHT22;36703;48.154;17.126;2023-12-20T07:33:35;5.00;59.20
50738;DHT22;36703;48.154;17.126;2023-12-20T07:37:36;5.00;59.10
50738;DHT22;36703;48.154;17.126;2023-12-20T07:41:37;5.00;59.10
50738;DHT22;36703;48.154;17.126;2023-12-20T07:45:39;5.10;59.20
50738;DHT22;36703;48.154;17.126;2023-12-20T07:49:40;5.00;59.10
50738;DHT22;36703;48.154;17.126;2023-12-20T07:53:42;5.10;59.00
50738;DHT22;36703;48.154;17.126;2023-12-20T07:57:43;5.10;59.20
50738;DHT22;36703;48.154;17.126;2023-12-20T08:01:45;5.10;59.40
50738;DHT22;36703;48.154;17.126;2023-12-20T08:05:46;5.20;59.30
50738;DHT22;36703;48.154;17.126;2023-12-20T08:09:47;5.20;59.10
50738;DHT22;36703;48.154;17.126;2023-12-20T08:13:49;5.30;59.10
50738;DHT22;36703;48.154;17.126;2023-12-20T08:17:50;5.40;59.10
50738;DHT22;36703;48.154;17.126;2023-12-20T08:21:52;5.40;59.00
50738;DHT22;36703;48.154;17.126;2023-12-20T08:25:53;5.30;58.80
50738;DHT22;36703;48.154;17.126;2023-12-20T08:29:55;5.20;58.90
50738;DHT22;36703;48.154;17.126;2023-12-20T08:33:56;5.20;59.20
50738;DHT22;36703;48.154;17.126;2023-12-20T08:37:58;5.30;59.20
50738;DHT22;36703;48.154;17.126;2023-12-20T08:41:59;5.20;59.20
50738;DHT22;36703;48.154;17.126;2023-12-20T08:46:01;5.20;59.20
50738;DHT22;36703;48.154;17.126;2023-12-20T08:50:03;5.10;59.40
50738;DHT22;36703;48.154;17.126;2023-12-20T08:54:05;5.00;59.60
50738;DHT22;36703;48.154;17.126;2023-12-20T08:58:09;5.00;60.00
50738;DHT22;36703;48.154;17.126;2023-12-20T09:02:10;5.00;60.60
50738;DHT22;36703;48.154;17.126;2023-12-20T09:06:12;5.20;60.90
50738;DHT22;36703;48.154;17.126;2023-12-20T09:10:13;5.40;61.40
50738;DHT22;36703;48.154;17.126;2023-12-20T09:14:15;5.70;61.80
50738;DHT22;36703;48.154;17.126;2023-12-20T09:18:16;6.00;61.80
50738;DHT22;36703;48.154;17.126;2023-12-20T09:22:18;6.30;62.20
50738;DHT22;36703;48.154;17.126;2023-12-20T09:26:19;6.60;62.10
50738;DHT22;36703;48.154;17.126;2023-12-20T09:30:22;6.90;62.00
50738;DHT22;36703;48.154;17.126;2023-12-20T09:34:24;7.10;62.00
50738;DHT22;36703;48.154;17.126;2023-12-20T09:38:26;7.30;61.90
50738;DHT22;36703;48.154;17.126;2023-12-20T09:42:35;7.50;62.00
50738;DHT22;36703;48.154;17.126;2023-12-20T09:46:44;7.70;62.10
50738;DHT22;36703;48.154;17.126;2023-12-20T09:50:47;7.90;61.90
50738;DHT22;36703;48.154;17.126;2023-12-20T09:54:50;8.00;61.80
50738;DHT22;36703;48.154;17.126;2023-12-20T09:58:53;8.10;61.70
50738;DHT22;36703;48.154;17.126;2023-12-20T10:02:59;8.20;61.60
50738;DHT22;36703;48.154;17.126;2023-12-20T10:07:02;8.30;61.50
50738;DHT22;36703;48.154;17.126;2023-12-20T10:11:07;8.40;61.50
50738;DHT22;36703;48.154;17.126;2023-12-20T10:15:09;8.30;61.30
50738;DHT22;36703;48.154;17.126;2023-12-20T10:19:11;8.50;61.50
50738;DHT22;36703;48.154;17.126;2023-12-20T10:23:13;8.90;62.20
50738;DHT22;36703;48.154;17.126;2023-12-20T10:27:18;8.90;63.90
50738;DHT22;36703;48.154;17.126;2023-12-20T10:31:30;8.90;60.90
50738;DHT22;36703;48.154;17.126;2023-12-20T10:35:34;8.90;60.70
50738;DHT22;36703;48.154;17.126;2023-12-20T10:39:36;9.00;60.60
50738;DHT22;36703;48.154;17.126;2023-12-20T10:43:38;9.10;60.40
50738;DHT22;36703;48.154;17.126;2023-12-20T10:47:41;9.20;60.40
50738;DHT22;36703;48.154;17.126;2023-12-20T10:51:44;9.30;60.20
50738;DHT22;36703;48.154;17.126;2023-12-20T10:55:48;9.30;60.00
50738;DHT22;36703;48.154;17.126;2023-12-20T10:59:53;9.30;60.00
50738;DHT22;36703;48.154;17.126;2023-12-20T11:03:55;9.30;60.00
50738;DHT22;36703;48.154;17.126;2023-12-20T11:12:18;9.40;59.80
50738;DHT22;36703;48.154;17.126;2023-12-20T11:16:23;9.40;59.70
50738;DHT22;36703;48.154;17.126;2023-12-20T11:20:37;9.50;59.60
50738;DHT22;36703;48.154;17.126;2023-12-20T11:24:44;9.50;59.60
50738;DHT22;36703;48.154;17.126;2023-12-20T11:28:46;9.60;59.60
50738;DHT22;36703;48.154;17.126;2023-12-20T11:32:48;9.50;59.40
50738;DHT22;36703;48.154;17.126;2023-12-20T11:37:00;9.60;59.40
50738;DHT22;36703;48.154;17.126;2023-12-20T11:41:05;9.60;59.20
50738;DHT22;36703;48.154;17.126;2023-12-20T11:45:14;9.60;59.20
50738;DHT22;36703;48.154;17.126;2023-12-20T11:49:16;9.60;59.10
50738;DHT22;36703;48.154;17.126;2023-12-20T11:53:18;9.60;59.00
50738;DHT22;36703;48.154;17.126;2023-12-20T11:57:21;9.60;59.00
50738;DHT22;36703;48.154;17.126;2023-12-20T12:01:22;9.70;58.90
50738;DHT22;36703;48.154;17.126;2023-12-20T12:05:25;9.70;58.90
50738;DHT22;36703;48.154;17.126;2023-12-20T12:09:27;9.70;58.80
50738;DHT22;36703;48.154;17.126;2023-12-20T12:13:28;9.70;58.70
50738;DHT22;36703;48.154;17.126;2023-12-20T12:17:29;9.80;58.70
50738;DHT22;36703;48.154;17.126;2023-12-20T12:21:31;9.80;58.50
50738;DHT22;36703;48.154;17.126;2023-12-20T12:25:35;9.90;58.50
50738;DHT22;36703;48.154;17.126;2023-12-20T12:29:38;9.90;58.40
50738;DHT22;36703;48.154;17.126;2023-12-20T12:33:40;10.00;58.20
50738;DHT22;36703;48.154;17.126;2023-12-20T12:37:42;10.00;58.10
50738;DHT22;36703;48.154;17.126;2023-12-20T12:41:44;10.10;58.20
50738;DHT22;36703;48.154;17.126;2023-12-20T12:45:46;10.20;58.00
50738;DHT22;36703;48.154;17.126;2023-12-20T12:49:49;10.20;57.90
50738;DHT22;36703;48.154;17.126;2023-12-20T12:53:53;10.20;57.80
50738;DHT22;36703;48.154;17.126;2023-12-20T12:57:54;10.20;57.70
50738;DHT22;36703;48.154;17.126;2023-12-20T13:01:56;10.20;57.60
50738;DHT22;36703;48.154;17.126;2023-12-20T13:05:58;10.30;57.50
50738;DHT22;36703;48.154;17.126;2023-12-20T13:09:59;10.30;57.50
50738;DHT22;36703;48.154;17.126;2023-12-20T13:14:01;10.30;57.60
50738;DHT22;36703;48.154;17.126;2023-12-20T13:18:05;10.30;57.50
50738;DHT22;36703;48.154;17.126;2023-12-20T13:22:07;10.50;57.60
50738;DHT22;36703;48.154;17.126;2023-12-20T13:26:09;10.70;57.30
50738;DHT22;36703;48.154;17.126;2023-12-20T13:30:11;10.80;57.00
50738;DHT22;36703;48.154;17.126;2023-12-20T13:34:14;10.80;56.80
50738;DHT22;36703;48.154;17.126;2023-12-20T13:38:15;10.60;56.70
50738;DHT22;36703;48.154;17.126;2023-12-20T13:42:17;10.90;56.80
50738;DHT22;36703;48.154;17.126;2023-12-20T13:46:18;10.70;56.70
50738;DHT22;36703;48.154;17.126;2023-12-20T13:50:20;10.60;56.70
50738;DHT22;36703;48.154;17.126;2023-12-20T13:54:21;10.70;56.70
50738;DHT22;36703;48.154;17.126;2023-12-20T13:58:23;10.70;56.60
50738;DHT22;36703;48.154;17.126;2023-12-20T14:02:25;10.70;56.50
50738;DHT22;36703;48.154;17.126;2023-12-20T14:06:28;10.50;56.30
50738;DHT22;36703;48.154;17.126;2023-12-20T14:10:30;10.60;56.30
50738;DHT22;36703;48.154;17.126;2023-12-20T14:14:32;10.70;56.30
50738;DHT22;36703;48.154;17.126;2023-12-20T14:18:33;10.60;56.30
50738;DHT22;36703;48.154;17.126;2023-12-20T14:22:35;10.50;56.20
50738;DHT22;36703;48.154;17.126;2023-12-20T14:26:37;10.70;56.20
50738;DHT22;36703;48.154;17.126;2023-12-20T14:30:39;10.70;56.10
50738;DHT22;36703;48.154;17.126;2023-12-20T14:34:41;10.70;56.10
50738;DHT22;36703;48.154;17.126;2023-12-20T14:38:43;10.70;56.10
50738;DHT22;36703;48.154;17.126;2023-12-20T14:42:46;10.70;56.10
50738;DHT22;36703;48.154;17.126;2023-12-20T14:46:47;10.90;56.10
50738;DHT22;36703;48.154;17.126;2023-12-20T14:50:49;10.70;55.80
50738;DHT22;36703;48.154;17.126;2023-12-20T14:54:51;10.80;55.90
50738;DHT22;36703;48.154;17.126;2023-12-20T14:58:53;10.70;55.80
50738;DHT22;36703;48.154;17.126;2023-12-20T15:02:54;10.70;55.80
50738;DHT22;36703;48.154;17.126;2023-12-20T15:06:56;10.70;55.80
50738;DHT22;36703;48.154;17.126;2023-12-20T15:10:58;10.70;55.90
50738;DHT22;36703;48.154;17.126;2023-12-20T15:15:00;10.60;55.90
50738;DHT22;36703;48.154;17.126;2023-12-20T15:19:02;10.50;55.80
50738;DHT22;36703;48.154;17.126;2023-12-20T15:23:04;10.60;55.90
50738;DHT22;36703;48.154;17.126;2023-12-20T15:27:08;10.50;55.70
50738;DHT22;36703;48.154;17.126;2023-12-20T15:31:09;10.50;55.70
50738;DHT22;36703;48.154;17.126;2023-12-20T15:35:11;10.50;55.70
50738;DHT22;36703;48.154;17.126;2023-12-20T15:39:12;10.40;55.70
50738;DHT22;36703;48.154;17.126;2023-12-20T15:43:15;10.40;55.70
50738;DHT22;36703;48.154;17.126;2023-12-20T15:47:17;10.30;55.70
50738;DHT22;36703;48.154;17.126;2023-12-20T15:51:20;10.40;55.80
50738;DHT22;36703;48.154;17.126;2023-12-20T15:55:23;10.40;55.70
50738;DHT22;36703;48.154;17.126;2023-12-20T15:59:24;10.40;55.80
50738;DHT22;36703;48.154;17.126;2023-12-20T16:03:26;10.40;55.80
50738;DHT22;36703;48.154;17.126;2023-12-20T16:07:27;10.40;55.80
50738;DHT22;36703;48.154;17.126;2023-12-20T16:11:29;10.40;55.80
50738;DHT22;36703;48.154;17.126;2023-12-20T16:15:30;10.40;55.70
50738;DHT22;36703;48.154;17.126;2023-12-20T16:19:32;10.30;55.70
50738;DHT22;36703;48.154;17.126;2023-12-20T16:23:33;10.30;55.60
50738;DHT22;36703;48.154;17.126;2023-12-20T16:27:35;10.30;55.60
50738;DHT22;36703;48.154;17.126;2023-12-20T16:31:36;10.30;55.60
50738;DHT22;36703;48.154;17.126;2023-12-20T16:35:38;10.30;55.60
50738;DHT22;36703;48.154;17.126;2023-12-20T16:39:39;10.40;55.60
50738;DHT22;36703;48.154;17.126;2023-12-20T16:43:40;10.30;55.50
50738;DHT22;36703;48.154;17.126;2023-12-20T16:47:42;10.30;55.40
50738;DHT22;36703;48.154;17.126;2023-12-20T16:51:43;10.30;55.40
50738;DHT22;36703;48.154;17.126;2023-12-20T16:55:45;10.30;55.40
50738;DHT22;36703;48.154;17.126;2023-12-20T16:59:46;10.30;55.30
50738;DHT22;36703;48.154;17.126;2023-12-20T17:03:48;10.20;55.90
50738;DHT22;36703;48.154;17.126;2023-12-20T17:07:51;10.20;55.30
50738;DHT22;36703;48.154;17.126;2023-12-20T17:11:53;10.30;55.40
50738;DHT22;36703;48.154;17.126;2023-12-20T17:15:54;10.20;55.40
50738;DHT22;36703;48.154;17.126;2023-12-20T17:19:56;10.20;55.40
50738;DHT22;36703;48.154;17.126;2023-12-20T17:23:57;10.20;55.40
50738;DHT22;36703;48.154;17.126;2023-12-20T17:27:59;10.10;55.30
50738;DHT22;36703;48.154;17.126;2023-12-20T17:32:00;10.10;55.30
50738;DHT22;36703;48.154;17.126;2023-12-20T17:36:02;10.20;55.40
50738;DHT22;36703;48.154;17.126;2023-12-20T17:40:04;10.20;55.50
50738;DHT22;36703;48.154;17.126;2023-12-20T17:44:06;10.10;55.20
50738;DHT22;36703;48.154;17.126;2023-12-20T17:48:07;10.20;55.20
50738;DHT22;36703;48.154;17.126;2023-12-20T17:52:09;10.20;55.20
50738;DHT22;36703;48.154;17.126;2023-12-20T17:56:10;10.30;55.30
50738;DHT22;36703;48.154;17.126;2023-12-20T18:00:24;10.10;55.20
50738;DHT22;36703;48.154;17.126;2023-12-20T18:04:28;10.00;55.10
50738;DHT22;36703;48.154;17.126;2023-12-20T18:08:29;9.90;55.30
50738;DHT22;36703;48.154;17.126;2023-12-20T18:12:31;9.90;55.50
50738;DHT22;36703;48.154;17.126;2023-12-20T18:16:32;9.80;55.50
50738;DHT22;36703;48.154;17.126;2023-12-20T18:20:34;9.80;55.50
50738;DHT22;36703;48.154;17.126;2023-12-20T18:24:36;9.80;55.50
50738;DHT22;36703;48.154;17.126;2023-12-20T18:28:37;9.70;55.50
50738;DHT22;36703;48.154;17.126;2023-12-20T18:32:38;9.80;55.50
50738;DHT22;36703;48.154;17.126;2023-12-20T18:36:41;9.80;55.40
50738;DHT22;36703;48.154;17.126;2023-12-20T18:40:44;9.70;55.10
50738;DHT22;36703;48.154;17.126;2023-12-20T18:44:48;9.70;55.10
50738;DHT22;36703;48.154;17.126;2023-12-20T18:48:50;9.90;55.00
50738;DHT22;36703;48.154;17.126;2023-12-20T18:52:52;9.90;55.00
50738;DHT22;36703;48.154;17.126;2023-12-20T18:56:53;10.00;54.60
50738;DHT22;36703;48.154;17.126;2023-12-20T19:00:54;9.90;54.50
50738;DHT22;36703;48.154;17.126;2023-12-20T19:04:56;9.90;54.30
50738;DHT22;36703;48.154;17.126;2023-12-20T19:08:57;9.90;54.10
50738;DHT22;36703;48.154;17.126;2023-12-20T19:12:59;9.90;54.00
50738;DHT22;36703;48.154;17.126;2023-12-20T19:17:00;9.80;53.80
50738;DHT22;36703;48.154;17.126;2023-12-20T19:21:03;9.90;53.80
50738;DHT22;36703;48.154;17.126;2023-12-20T19:25:09;9.90;53.50
50738;DHT22;36703;48.154;17.126;2023-12-20T19:29:11;9.90;53.50
50738;DHT22;36703;48.154;17.126;2023-12-20T19:33:12;10.30;53.60
50738;DHT22;36703;48.154;17.126;2023-12-20T19:37:13;10.20;53.30
50738;DHT22;36703;48.154;17.126;2023-12-20T19:41:15;10.20;52.70
50738;DHT22;36703;48.154;17.126;2023-12-20T19:45:17;10.10;52.40
50738;DHT22;36703;48.154;17.126;2023-12-20T19:49:19;10.10;52.20
50738;DHT22;36703;48.154;17.126;2023-12-20T19:53:21;10.60;52.40
50738;DHT22;36703;48.154;17.126;2023-12-20T19:57:24;10.50;52.00
50738;DHT22;36703;48.154;17.126;2023-12-20T20:01:25;10.00;51.40
50738;DHT22;36703;48.154;17.126;2023-12-20T20:05:27;10.00;51.30
50738;DHT22;36703;48.154;17.126;2023-12-20T20:09:28;9.60;51.20
50738;DHT22;36703;48.154;17.126;2023-12-20T20:13:30;10.60;51.60
50738;DHT22;36703;48.154;17.126;2023-12-20T20:17:32;10.30;51.30
50738;DHT22;36703;48.154;17.126;2023-12-20T20:21:33;10.00;51.10
50738;DHT22;36703;48.154;17.126;2023-12-20T20:25:35;10.10;51.10
50738;DHT22;36703;48.154;17.126;2023-12-20T20:29:36;10.00;51.00
50738;DHT22;36703;48.154;17.126;2023-12-20T20:33:37;10.00;51.60
50738;DHT22;36703;48.154;17.126;2023-12-20T20:37:39;9.90;51.10
50738;DHT22;36703;48.154;17.126;2023-12-20T20:41:40;10.40;51.50
50738;DHT22;36703;48.154;17.126;2023-12-20T20:45:42;9.90;50.90
50738;DHT22;36703;48.154;17.126;2023-12-20T20:49:43;9.80;51.00
50738;DHT22;36703;48.154;17.126;2023-12-20T20:53:45;10.70;51.60
50738;DHT22;36703;48.154;17.126;2023-12-20T20:57:48;10.50;51.30
50738;DHT22;36703;48.154;17.126;2023-12-20T21:01:51;9.90;51.00
50738;DHT22;36703;48.154;17.126;2023-12-20T21:05:52;9.80;50.90
50738;DHT22;36703;48.154;17.126;2023-12-20T21:09:54;10.60;51.20
50738;DHT22;36703;48.154;17.126;2023-12-20T21:13:56;9.90;50.90
50738;DHT22;36703;48.154;17.126;2023-12-20T21:17:59;9.90;50.90
50738;DHT22;36703;48.154;17.126;2023-12-20T21:22:00;9.90;50.90
50738;DHT22;36703;48.154;17.126;2023-12-20T21:26:02;9.80;50.70
50738;DHT22;36703;48.154;17.126;2023-12-20T21:30:07;9.80;50.80
50738;DHT22;36703;48.154;17.126;2023-12-20T21:34:11;9.80;50.80
50738;DHT22;36703;48.154;17.126;2023-12-20T21:38:12;9.80;50.90
50738;DHT22;36703;48.154;17.126;2023-12-20T21:42:13;9.90;50.90
50738;DHT22;36703;48.154;17.126;2023-12-20T21:46:15;11.50;51.70
50738;DHT22;36703;48.154;17.126;2023-12-20T21:50:17;10.40;51.10
50738;DHT22;36703;48.154;17.126;2023-12-20T21:54:19;9.90;50.70
50738;DHT22;36703;48.154;17.126;2023-12-20T21:58:21;9.90;51.20
50738;DHT22;36703;48.154;17.126;2023-12-20T22:02:22;10.10;50.80
50738;DHT22;36703;48.154;17.126;2023-12-20T22:06:24;10.00;50.60
50738;DHT22;36703;48.154;17.126;2023-12-20T22:10:26;10.00;50.40
50738;DHT22;36703;48.154;17.126;2023-12-20T22:14:27;10.00;50.40
50738;DHT22;36703;48.154;17.126;2023-12-20T22:18:30;10.00;50.40
50738;DHT22;36703;48.154;17.126;2023-12-20T22:22:32;10.00;50.30
50738;DHT22;36703;48.154;17.126;2023-12-20T22:26:33;10.10;50.40
50738;DHT22;36703;48.154;17.126;2023-12-20T22:30:35;10.20;50.40
50738;DHT22;36703;48.154;17.126;2023-12-20T22:34:36;10.10;50.30
50738;DHT22;36703;48.154;17.126;2023-12-20T22:38:38;10.40;50.40
50738;DHT22;36703;48.154;17.126;2023-12-20T22:42:40;10.10;50.30
50738;DHT22;36703;48.154;17.126;2023-12-20T22:46:42;10.10;50.20
50738;DHT22;36703;48.154;17.126;2023-12-20T22:50:43;10.10;50.10
50738;DHT22;36703;48.154;17.126;2023-12-20T22:54:44;10.10;50.00
50738;DHT22;36703;48.154;17.126;2023-12-20T22:58:46;10.10;49.90
50738;DHT22;36703;48.154;17.126;2023-12-20T23:02:47;10.00;49.80
50738;DHT22;36703;48.154;17.126;2023-12-20T23:06:49;10.10;49.90
50738;DHT22;36703;48.154;17.126;2023-12-20T23:10:50;10.00;49.70
50738;DHT22;36703;48.154;17.126;2023-12-20T23:14:52;10.10;49.70
50738;DHT22;36703;48.154;17.126;2023-12-20T23:18:53;10.30;49.80
50738;DHT22;36703;48.154;17.126;2023-12-20T23:22:55;10.10;49.70
50738;DHT22;36703;48.154;17.126;2023-12-20T23:26:56;10.10;49.40
50738;DHT22;36703;48.154;17.126;2023-12-20T23:30:58;11.00;50.00
50738;DHT22;36703;48.154;17.126;2023-12-20T23:34:59;10.00;49.40
50738;DHT22;36703;48.154;17.126;2023-12-20T23:39:01;10.00;50.00
50738;DHT22;36703;48.154;17.126;2023-12-20T23:43:02;10.10;49.30
50738;DHT22;36703;48.154;17.126;2023-12-20T23:47:04;10.00;49.30
50738;DHT22;36703;48.154;17.126;2023-12-20T23:51:05;10.00;49.30
50738;DHT22;36703;48.154;17.126;2023-12-20T23:55:07;9.90;49.20
50738;DHT22;36703;48.154;17.126;2023-12-20T23:59:08;10.10;49.30
